Time;durP1;ratioP1;P1;durP2;ratioP2;P2;SDS_P1;SDS_P2;PMS_P1;PMS_P2;Temp;Humidity;BMP_temperature;BMP_pressure;BME280_temperature;BME280_humidity;BME280_pressure;Samples;Min_cycle;Max_cycle;Signal;HPM_P1;HPM_P2
2021/10/05 00:02:30;;;;;;;1.85;1.00;;;18.60;74.90;;;;;;10502095;28;20064;-60
2021/10/05 00:07:30;;;;;;;2.33;0.93;;;18.60;74.90;;;;;;10518184;28;20479;-60
2021/10/05 00:12:31;;;;;;;2.28;0.98;;;18.60;74.90;;;;;;10502192;28;20017;-60
2021/10/05 00:17:32;;;;;;;3.20;0.90;;;18.60;74.90;;;;;;10484156;28;20025;-61
2021/10/05 00:22:33;;;;;;;2.25;0.82;;;18.60;75.50;;;;;;10500544;28;20032;-60
2021/10/05 00:27:34;;;;;;;2.70;0.95;;;18.60;74.90;;;;;;10500361;28;20030;-60
2021/10/05 00:32:34;;;;;;;3.70;0.80;;;18.60;74.90;;;;;;10499665;28;20466;-61
2021/10/05 00:37:36;;;;;;;1.95;0.80;;;18.60;74.90;;;;;;10499986;28;20028;-61
2021/10/05 00:42:39;;;;;;;2.90;1.02;;;18.60;74.90;;;;;;10499343;28;20074;-60
2021/10/05 00:47:40;;;;;;;1.55;0.70;;;18.60;74.90;;;;;;10500292;28;20443;-61
2021/10/05 00:52:43;;;;;;;2.72;1.00;;;18.60;74.70;;;;;;10509305;28;20507;-60
2021/10/05 00:57:43;;;;;;;1.45;0.70;;;18.60;74.60;;;;;;10482421;28;20070;-61
2021/10/05 01:02:46;;;;;;;1.88;0.75;;;18.60;74.50;;;;;;10498709;28;20130;-60
2021/10/05 01:07:48;;;;;;;1.42;0.60;;;18.60;74.50;;;;;;10498350;28;20033;-60
2021/10/05 01:12:52;;;;;;;1.55;0.70;;;18.70;74.30;;;;;;10499472;28;20467;-60
2021/10/05 01:17:53;;;;;;;1.38;0.77;;;18.80;74.10;;;;;;10498278;28;20021;-60
2021/10/05 01:22:54;;;;;;;1.75;0.80;;;18.80;74.00;;;;;;10497774;28;20089;-61
2021/10/05 01:27:55;;;;;;;2.25;0.95;;;18.80;74.00;;;;;;10497768;28;20082;-60
2021/10/05 01:32:55;;;;;;;1.63;0.73;;;18.70;74.00;;;;;;10497196;28;20086;-60
2021/10/05 01:37:56;;;;;;;0.85;0.63;;;18.70;74.10;;;;;;10497396;28;20384;-60
2021/10/05 01:42:57;;;;;;;1.63;0.70;;;18.70;74.20;;;;;;10496672;28;20098;-61
2021/10/05 01:47:58;;;;;;;1.30;0.80;;;18.60;74.20;;;;;;10497642;28;20111;-60
2021/10/05 01:52:58;;;;;;;1.90;0.70;;;18.60;74.20;;;;;;10506033;28;20028;-60
2021/10/05 01:57:59;;;;;;;1.05;0.60;;;18.70;74.20;;;;;;10496673;28;20496;-61
2021/10/05 02:03:00;;;;;;;1.35;0.73;;;18.70;74.10;;;;;;10496340;28;20115;-60
2021/10/05 02:08:00;;;;;;;1.20;0.60;;;18.60;74.10;;;;;;10496158;28;20078;-61
2021/10/05 02:13:03;;;;;;;2.55;0.80;;;18.60;74.10;;;;;;10496240;28;20028;-60
2021/10/05 02:18:05;;;;;;;1.27;0.55;;;18.60;74.10;;;;;;10495975;28;20032;-61
2021/10/05 02:23:06;;;;;;;1.75;0.70;;;18.60;74.20;;;;;;10496925;28;20036;-60
2021/10/05 02:28:07;;;;;;;0.85;0.60;;;18.60;73.90;;;;;;10495963;28;20149;-60
2021/10/05 02:33:08;;;;;;;1.25;0.50;;;18.70;73.70;;;;;;10496681;28;20194;-60
2021/10/05 02:38:08;;;;;;;0.93;0.68;;;18.70;73.60;;;;;;10483531;28;20071;-60
2021/10/05 02:43:09;;;;;;;2.38;0.60;;;18.80;73.60;;;;;;10495264;28;20036;-60
2021/10/05 02:48:10;;;;;;;1.88;0.65;;;18.70;73.50;;;;;;10497632;28;20064;-60
2021/10/05 02:53:10;;;;;;;1.67;0.55;;;18.70;73.60;;;;;;10497315;28;20028;-60
2021/10/05 02:58:11;;;;;;;2.47;0.80;;;18.70;73.70;;;;;;10495286;28;20033;-60
2021/10/05 03:03:12;;;;;;;1.27;0.40;;;18.70;73.80;;;;;;10497703;28;20070;-60
2021/10/05 03:08:12;;;;;;;1.33;0.60;;;18.60;73.80;;;;;;10504695;28;20107;-61
2021/10/05 03:13:13;;;;;;;1.65;0.95;;;18.60;73.80;;;;;;10502624;28;20074;-60
2021/10/05 03:18:14;;;;;;;2.72;0.75;;;18.60;73.80;;;;;;10502927;28;20106;-61
2021/10/05 03:23:14;;;;;;;2.03;0.75;;;18.60;73.70;;;;;;10503653;28;20035;-60
2021/10/05 03:28:15;;;;;;;3.15;0.50;;;18.60;73.70;;;;;;10502376;28;20556;-60
2021/10/05 03:33:16;;;;;;;0.63;0.50;;;18.60;73.80;;;;;;10501953;28;20051;-60
2021/10/05 03:38:17;;;;;;;1.25;0.57;;;18.60;73.80;;;;;;10503521;28;20364;-60
2021/10/05 03:43:18;;;;;;;1.23;0.70;;;18.60;73.70;;;;;;10501401;28;20063;-60
2021/10/05 03:48:19;;;;;;;1.05;0.55;;;18.70;73.40;;;;;;10505589;28;20031;-60
2021/10/05 03:53:20;;;;;;;2.10;0.80;;;18.70;73.20;;;;;;10503478;28;20112;-60
2021/10/05 03:58:23;;;;;;;1.75;0.40;;;18.80;73.30;;;;;;10504576;28;20477;-61
2021/10/05 04:03:24;;;;;;;1.30;0.68;;;18.70;73.30;;;;;;10501256;28;20021;-60
2021/10/05 04:08:25;;;;;;;0.82;0.50;;;18.70;73.50;;;;;;10501996;28;20025;-61
2021/10/05 04:13:25;;;;;;;0.93;0.60;;;18.70;73.60;;;;;;10482851;28;20151;-61
2021/10/05 04:18:26;;;;;;;0.73;0.43;;;18.60;73.60;;;;;;10501672;28;20085;-60
2021/10/05 04:23:27;;;;;;;1.35;0.50;;;18.60;73.70;;;;;;10501197;28;20135;-60
2021/10/05 04:28:27;;;;;;;1.13;0.65;;;18.60;73.70;;;;;;10500239;28;20481;-61
2021/10/05 04:33:28;;;;;;;0.52;0.43;;;18.60;73.50;;;;;;10501118;28;20044;-61
2021/10/05 04:38:29;;;;;;;0.93;0.50;;;18.70;73.10;;;;;;10486257;28;20028;-60
2021/10/05 04:43:30;;;;;;;1.33;0.73;;;18.80;73.00;;;;;;10501151;28;20459;-61
2021/10/05 04:48:30;;;;;;;1.27;0.60;;;18.80;73.00;;;;;;10506196;28;20459;-58
2021/10/05 04:53:31;;;;;;;1.23;1.05;;;18.80;72.90;;;;;;10503091;28;20029;-55
2021/10/05 04:58:32;;;;;;;1.80;0.80;;;19.00;73.10;;;;;;10500621;28;20134;-57
2021/10/05 05:03:32;;;;;;;3.42;0.90;;;19.00;73.90;;;;;;10498439;28;20028;-57
2021/10/05 05:08:33;;;;;;;2.10;0.80;;;19.00;74.10;;;;;;10498776;28;20039;-58
2021/10/05 05:13:34;;;;;;;6.75;0.85;;;19.00;73.70;;;;;;10481783;28;20486;-58
2021/10/05 05:18:35;;;;;;;3.22;0.70;;;19.00;74.00;;;;;;10489281;28;20107;-58
2021/10/05 05:23:36;;;;;;;7.22;1.00;;;19.00;73.90;;;;;;10498305;28;20148;-57
2021/10/05 05:28:36;;;;;;;9.32;1.23;;;19.00;74.20;;;;;;10495803;28;20485;-60
2021/10/05 05:33:37;;;;;;;9.50;1.60;;;18.90;74.20;;;;;;10493554;28;20132;-58
2021/10/05 05:38:39;;;;;;;13.40;1.67;;;19.00;74.40;;;;;;10487042;28;20099;-59
2021/10/05 05:43:40;;;;;;;8.63;1.35;;;19.00;74.30;;;;;;10495919;28;20033;-56
2021/10/05 05:48:41;;;;;;;7.82;1.60;;;18.80;74.30;;;;;;10500139;28;20385;-58
2021/10/05 05:53:41;;;;;;;7.28;1.25;;;18.80;74.30;;;;;;10499756;28;20438;-57
2021/10/05 05:58:42;;;;;;;5.72;1.17;;;18.70;74.30;;;;;;10495984;28;20051;-58
2021/10/05 06:03:46;;;;;;;17.52;1.73;;;18.60;74.40;;;;;;10495209;28;20538;-58
2021/10/05 06:08:48;;;;;;;6.93;1.52;;;18.60;74.50;;;;;;10497958;28;20154;-58
2021/10/05 06:13:49;;;;;;;9.80;1.80;;;18.60;74.70;;;;;;10497001;28;20098;-58
2021/10/05 06:18:50;;;;;;;6.80;1.70;;;18.50;74.70;;;;;;10496504;28;20102;-58
2021/10/05 06:23:51;;;;;;;9.73;1.35;;;18.50;74.50;;;;;;10497796;28;20120;-58
2021/10/05 06:28:51;;;;;;;5.25;1.08;;;18.50;74.50;;;;;;10497064;28;20036;-58
2021/10/05 06:33:52;;;;;;;5.13;1.42;;;18.50;74.40;;;;;;10495929;28;20420;-58
2021/10/05 06:38:53;;;;;;;3.90;1.40;;;18.50;74.20;;;;;;10482096;28;20127;-58
2021/10/05 06:43:53;;;;;;;6.25;1.45;;;18.60;74.00;;;;;;10496738;28;20154;-57
2021/10/05 06:48:54;;;;;;;3.80;1.70;;;18.60;73.90;;;;;;10488815;28;20043;-58
2021/10/05 06:53:55;;;;;;;3.67;1.50;;;18.60;73.80;;;;;;10493254;28;20143;-58
2021/10/05 06:58:56;;;;;;;5.53;1.13;;;18.60;74.00;;;;;;10495911;28;20524;-58
2021/10/05 07:03:59;;;;;;;8.30;2.08;;;18.70;74.30;;;;;;10495409;28;20074;-58
2021/10/05 07:08:59;;;;;;;4.63;1.55;;;18.70;74.20;;;;;;10496035;28;20036;-58
2021/10/05 07:14:00;;;;;;;4.60;1.65;;;18.70;74.10;;;;;;10494610;28;20104;-58
2021/10/05 07:19:01;;;;;;;5.97;1.00;;;18.70;74.20;;;;;;10477914;28;20044;-58
2021/10/05 07:24:02;;;;;;;3.85;1.15;;;18.70;74.30;;;;;;10494416;28;20060;-58
2021/10/05 07:29:03;;;;;;;4.93;1.48;;;18.70;74.40;;;;;;10495234;28;20039;-57
2021/10/05 07:34:04;;;;;;;6.47;1.23;;;18.70;74.30;;;;;;10491140;28;20045;-57
2021/10/05 07:39:05;;;;;;;3.85;1.27;;;18.70;74.40;;;;;;10495012;28;20071;-58
2021/10/05 07:44:05;;;;;;;3.42;1.23;;;18.70;74.40;;;;;;10491488;28;20107;-58
2021/10/05 07:49:07;;;;;;;3.15;1.00;;;18.70;74.40;;;;;;10497188;28;20115;-58
2021/10/05 07:54:07;;;;;;;3.30;1.02;;;18.70;74.40;;;;;;10501030;28;20028;-57
2021/10/05 07:59:09;;;;;;;2.28;0.82;;;18.70;74.40;;;;;;10472379;28;20030;-56
2021/10/05 08:04:09;;;;;;;3.03;1.23;;;18.70;74.50;;;;;;10502370;28;20032;-57
2021/10/05 08:09:13;;;;;;;3.08;1.50;;;18.70;74.50;;;;;;10484269;28;20075;-57
2021/10/05 08:14:14;;;;;;;2.83;0.90;;;18.70;74.40;;;;;;10501008;28;20032;-58
2021/10/05 08:19:16;;;;;;;3.60;0.98;;;18.70;74.40;;;;;;10488798;28;20032;-57
2021/10/05 08:24:19;;;;;;;2.42;1.13;;;18.70;74.30;;;;;;10500531;28;20044;-57
2021/10/05 08:29:20;;;;;;;4.07;1.05;;;18.70;74.20;;;;;;10500286;28;20086;-58
2021/10/05 08:34:20;;;;;;;2.92;0.88;;;18.80;74.30;;;;;;10500335;28;20049;-57
2021/10/05 08:39:21;;;;;;;1.75;0.90;;;18.80;74.30;;;;;;10501314;28;20024;-58
2021/10/05 08:44:24;;;;;;;4.70;1.13;;;18.80;74.20;;;;;;10499833;28;20444;-57
2021/10/05 08:49:25;;;;;;;2.40;1.10;;;18.80;74.10;;;;;;10511625;28;20028;-57
2021/10/05 08:54:26;;;;;;;2.97;1.00;;;18.80;74.20;;;;;;10499422;28;20056;-58
2021/10/05 08:59:26;;;;;;;1.48;0.93;;;18.80;74.10;;;;;;10498437;28;20032;-58
2021/10/05 09:04:33;;;;;;;5.78;1.45;;;18.90;74.00;;;;;;10500100;28;20032;-58
2021/10/05 09:09:34;;;;;;;3.55;1.23;;;18.90;73.90;;;;;;10500096;28;20496;-58
2021/10/05 09:14:37;;;;;;;1.85;1.05;;;18.90;73.90;;;;;;10499631;28;20029;-58
2021/10/05 09:19:38;;;;;;;2.50;0.88;;;18.90;73.80;;;;;;10498494;28;20028;-58
2021/10/05 09:24:38;;;;;;;2.25;1.17;;;19.00;73.70;;;;;;10498174;28;20115;-56
2021/10/05 09:29:42;;;;;;;2.33;1.00;;;19.00;73.70;;;;;;10498155;28;20170;-57
2021/10/05 09:34:51;;;;;;;3.60;1.30;;;19.00;73.60;;;;;;10497336;28;20531;-57
2021/10/05 09:40:06;;;;;;;3.05;0.98;;;19.00;73.50;;;;;;10497668;28;20481;-57
2021/10/05 09:45:11;;;;;;;3.08;0.85;;;19.10;73.40;;;;;;10497449;28;20036;-57
2021/10/05 09:50:24;;;;;;;2.88;1.15;;;19.20;73.30;;;;;;10496991;28;20040;-58
2021/10/05 09:55:29;;;;;;;2.05;0.73;;;19.20;73.30;;;;;;10498394;28;20024;-58
2021/10/05 10:00:34;;;;;;;2.83;1.08;;;19.20;73.20;;;;;;10496648;28;20079;-58
2021/10/05 10:05:40;;;;;;;1.38;0.77;;;19.20;73.10;;;;;;10485438;28;20043;-58
2021/10/05 10:10:41;;;;;;;2.97;1.13;;;19.30;73.10;;;;;;10492203;28;20028;-57
2021/10/05 10:15:43;;;;;;;1.60;0.80;;;19.40;72.80;;;;;;10493645;28;20025;-58
2021/10/05 10:20:50;;;;;;;3.20;1.40;;;19.40;72.70;;;;;;10491547;28;20025;-57
2021/10/05 10:26:03;;;;;;;2.67;1.10;;;19.50;72.60;;;;;;10491579;28;20123;-57
2021/10/05 10:31:30;;;;;;;1.60;0.73;;;19.50;72.50;;;;;;10489771;28;20040;-58
2021/10/05 10:36:40;;;;;;;3.17;1.23;;;19.50;73.10;;;;;;10496475;28;20043;-57
2021/10/05 10:41:57;;;;;;;2.08;1.20;;;19.60;72.60;;;;;;10492302;28;20492;-57
2021/10/05 10:47:14;;;;;;;2.05;1.00;;;19.50;72.70;;;;;;10485273;28;20034;-57
2021/10/05 10:52:23;;;;;;;2.60;1.13;;;19.50;72.90;;;;;;10496235;28;20024;-58
2021/10/05 10:57:53;;;;;;;2.42;0.88;;;19.40;73.20;;;;;;10496279;28;20043;-58
2021/10/05 11:02:58;;;;;;;4.82;1.83;;;19.40;73.20;;;;;;10477165;28;20035;-59
2021/10/05 11:07:59;;;;;;;2.28;0.60;;;19.40;73.30;;;;;;10494385;28;20063;-59
2021/10/05 11:13:04;;;;;;;1.85;0.90;;;19.30;73.40;;;;;;10498665;28;20062;-59
2021/10/05 11:18:17;;;;;;;2.72;1.13;;;19.20;73.70;;;;;;10491507;28;20032;-58
2021/10/05 11:23:25;;;;;;;1.45;0.80;;;19.20;73.70;;;;;;10494935;28;20108;-57
2021/10/05 11:28:33;;;;;;;5.28;1.45;;;19.10;73.60;;;;;;10498234;28;20477;-58
2021/10/05 11:33:37;;;;;;;3.97;1.23;;;19.10;74.50;;;;;;10501108;28;20048;-58
2021/10/05 11:38:39;;;;;;;3.60;1.23;;;19.10;74.20;;;;;;10503351;28;20039;-58
2021/10/05 11:43:44;;;;;;;2.58;0.95;;;19.00;74.30;;;;;;10503510;28;20085;-58
2021/10/05 11:48:50;;;;;;;2.55;0.98;;;19.00;74.30;;;;;;10501939;28;20484;-56
2021/10/05 11:53:51;;;;;;;2.45;1.52;;;18.90;74.30;;;;;;10499062;28;20036;-57
2021/10/05 11:58:58;;;;;;;3.78;1.10;;;18.90;74.20;;;;;;10500723;28;20036;-57
2021/10/05 12:04:07;;;;;;;2.58;1.00;;;18.90;74.40;;;;;;10502467;28;20081;-57
2021/10/05 12:09:18;;;;;;;1.48;1.00;;;18.80;74.40;;;;;;10501300;28;20033;-57
2021/10/05 12:14:23;;;;;;;1.30;0.70;;;18.80;74.40;;;;;;10501118;28;20040;-57
2021/10/05 12:19:30;;;;;;;1.90;0.98;;;18.80;74.50;;;;;;10500473;28;20028;-57
2021/10/05 12:24:42;;;;;;;2.00;1.00;;;18.80;74.60;;;;;;10500893;28;20503;-57
2021/10/05 12:30:13;;;;;;;4.18;1.00;;;18.70;74.50;;;;;;10500732;28;20572;-57
2021/10/05 12:35:32;;;;;;;4.00;1.58;;;18.80;74.60;;;;;;10499151;28;20050;-57
2021/10/05 12:40:47;;;;;;;3.17;1.00;;;18.80;74.80;;;;;;10499954;28;20036;-62
2021/10/05 12:45:55;;;;;;;4.53;1.52;;;18.90;74.80;;;;;;10500959;28;20416;-63
2021/10/05 12:50:56;;;;;;;9.75;2.13;;;19.00;74.30;;;;;;10493891;28;20401;-66
2021/10/05 12:55:56;;;;;;;4.03;0.90;;;19.20;74.00;;;;;;10500485;28;20040;-65
2021/10/05 13:00:58;;;;;;;7.50;1.00;;;19.30;73.50;;;;;;10498100;28;20166;-72
2021/10/05 13:05:59;;;;;;;5.80;1.10;;;19.00;74.40;;;;;;10499009;28;20051;-66
2021/10/05 13:10:59;;;;;;;6.22;1.60;;;18.90;75.20;;;;;;10498118;28;20036;-67
2021/10/05 13:16:00;;;;;;;3.40;1.02;;;18.90;75.40;;;;;;10497744;28;20031;-61
2021/10/05 13:21:01;;;;;;;5.68;1.65;;;18.90;77.60;;;;;;10498181;28;20048;-64
2021/10/05 13:26:02;;;;;;;2.00;1.10;;;18.90;78.00;;;;;;10497058;28;20060;-64
2021/10/05 13:31:03;;;;;;;5.15;1.65;;;18.90;78.40;;;;;;10497046;28;20036;-65
2021/10/05 13:36:04;;;;;;;9.93;1.50;;;18.80;78.50;;;;;;10498929;28;20067;-65
2021/10/05 13:41:08;;;;;;;5.20;1.35;;;18.80;78.40;;;;;;10497214;28;20473;-63
2021/10/05 13:46:09;;;;;;;4.18;1.58;;;18.70;78.40;;;;;;10497923;28;20047;-63
2021/10/05 13:51:09;;;;;;;7.13;1.35;;;18.70;77.90;;;;;;10500829;28;21042;-66
2021/10/05 13:56:10;;;;;;;5.15;1.10;;;18.70;78.90;;;;;;10496202;28;20028;-66
2021/10/05 14:01:11;;;;;;;3.80;1.33;;;18.70;77.50;;;;;;10496756;28;20040;-66
2021/10/05 14:06:13;;;;;;;4.40;1.08;;;18.70;77.80;;;;;;10496408;28;20113;-66
2021/10/05 14:11:14;;;;;;;4.28;1.30;;;18.70;77.70;;;;;;10495245;28;20028;-66
2021/10/05 14:16:14;;;;;;;4.60;1.20;;;18.60;77.60;;;;;;10478932;28;20029;-66
2021/10/05 14:21:18;;;;;;;5.05;1.20;;;18.60;77.60;;;;;;10496410;28;20059;-65
2021/10/05 14:26:19;;;;;;;3.95;1.30;;;18.60;77.50;;;;;;10497254;28;20034;-66
2021/10/05 14:31:20;;;;;;;6.32;1.00;;;18.60;77.50;;;;;;10480089;28;20124;-67
2021/10/05 14:36:21;;;;;;;3.88;1.10;;;18.60;77.60;;;;;;10495179;28;20033;-67
2021/10/05 14:41:22;;;;;;;6.10;1.23;;;18.60;77.90;;;;;;10478544;28;20025;-63
2021/10/05 14:46:22;;;;;;;5.03;1.15;;;18.70;77.80;;;;;;10486357;28;20024;-64
2021/10/05 14:51:23;;;;;;;5.45;1.55;;;18.70;78.00;;;;;;10483709;28;20079;-65
2021/10/05 14:56:24;;;;;;;26.13;12.35;;;18.70;77.80;;;;;;10498909;28;20127;-65
2021/10/05 15:01:25;;;;;;;9.52;3.42;;;18.80;78.10;;;;;;10501395;28;20051;-65
2021/10/05 15:06:26;;;;;;;12.55;4.35;;;18.70;79.90;;;;;;10502604;28;20029;-63
2021/10/05 15:11:27;;;;;;;13.30;6.28;;;18.80;80.30;;;;;;10503561;28;20025;-64
2021/10/05 15:16:27;;;;;;;17.17;5.60;;;18.80;81.70;;;;;;10499666;28;20476;-64
2021/10/05 15:21:29;;;;;;;12.20;5.63;;;18.90;79.90;;;;;;10504113;28;20055;-65
2021/10/05 15:26:30;;;;;;;10.07;5.90;;;18.80;80.30;;;;;;10502702;28;20042;-64
2021/10/05 15:31:30;;;;;;;10.23;5.93;;;18.80;79.60;;;;;;10503642;28;20053;-64
2021/10/05 15:36:31;;;;;;;12.93;5.47;;;18.70;79.40;;;;;;10502785;28;20660;-64
2021/10/05 15:41:32;;;;;;;11.68;5.18;;;18.70;79.30;;;;;;10485496;28;20550;-64
2021/10/05 15:46:33;;;;;;;7.95;4.03;;;18.70;79.20;;;;;;10498057;28;20064;-64
2021/10/05 15:51:41;;;;;;;8.52;3.78;;;18.70;79.10;;;;;;10501920;28;20029;-64
2021/10/05 15:56:41;;;;;;;9.45;8.10;;;18.70;78.90;;;;;;10499170;28;20384;-65
2021/10/05 16:01:43;;;;;;;22.65;15.65;;;18.70;78.70;;;;;;10497918;28;20041;-66
2021/10/05 16:06:45;;;;;;;31.48;19.42;;;18.70;78.50;;;;;;10501280;28;20036;-67
2021/10/05 16:11:46;;;;;;;15.68;7.82;;;18.70;79.20;;;;;;10499678;28;20040;-71
2021/10/05 16:16:47;;;;;;;20.00;8.20;;;18.90;77.80;;;;;;10500827;28;20790;-67
2021/10/05 16:21:48;;;;;;;19.33;8.52;;;19.00;77.70;;;;;;10502138;28;20131;-70
2021/10/05 16:26:49;;;;;;;14.38;7.75;;;19.10;77.90;;;;;;10501509;28;20039;-70
2021/10/05 16:31:49;;;;;;;22.70;7.97;;;19.10;77.90;;;;;;10499425;28;20467;-68
2021/10/05 16:36:50;;;;;;;20.17;7.25;;;19.10;77.50;;;;;;10499582;28;20024;-71
2021/10/05 16:41:52;;;;;;;16.48;6.53;;;19.00;77.70;;;;;;10500567;28;20123;-69
2021/10/05 16:46:53;;;;;;;30.13;8.18;;;19.00;78.10;;;;;;10481995;28;20024;-71
2021/10/05 16:51:54;;;;;;;26.00;6.55;;;19.00;77.90;;;;;;10499651;28;20402;-71
2021/10/05 16:56:55;;;;;;;33.83;7.93;;;19.00;78.10;;;;;;10499114;28;20021;-58
2021/10/05 17:01:55;;;;;;;23.83;7.22;;;19.00;78.70;;;;;;10500362;28;20028;-73
2021/10/05 17:06:56;;;;;;;17.85;5.78;;;18.90;78.40;;;;;;10498910;28;20103;-67
2021/10/05 17:11:57;;;;;;;17.45;5.90;;;19.00;79.00;;;;;;10498019;28;20120;-71
2021/10/05 17:16:58;;;;;;;15.95;6.85;;;19.00;78.70;;;;;;10499651;28;20103;-71
2021/10/05 17:21:59;;;;;;;20.45;6.00;;;18.90;78.70;;;;;;10499138;28;20035;-69
2021/10/05 17:27:00;;;;;;;12.68;5.47;;;18.80;78.60;;;;;;10499554;28;20401;-75
2021/10/05 17:32:00;;;;;;;23.25;6.00;;;18.80;78.60;;;;;;10476062;28;20076;-71
2021/10/05 17:37:01;;;;;;;13.60;5.95;;;18.80;78.70;;;;;;10497096;28;20456;-70
2021/10/05 17:42:02;;;;;;;16.63;5.82;;;18.70;78.40;;;;;;10479905;28;20074;-71
2021/10/05 17:47:03;;;;;;;10.57;4.78;;;18.70;78.70;;;;;;10498412;28;20548;-73
2021/10/05 17:52:04;;;;;;;15.05;4.93;;;18.80;79.00;;;;;;10479997;28;20086;-71
2021/10/05 17:57:07;;;;;;;14.27;5.20;;;18.90;78.40;;;;;;10497614;28;20028;-74
2021/10/05 18:02:07;;;;;;;9.68;4.55;;;18.80;78.60;;;;;;10497794;28;20042;-54
2021/10/05 18:07:08;;;;;;;12.60;4.47;;;18.80;78.50;;;;;;10490480;28;20117;-68
2021/10/05 18:12:09;;;;;;;11.65;5.05;;;18.80;78.30;;;;;;10501092;28;20036;-70
2021/10/05 18:17:10;;;;;;;12.93;4.10;;;18.80;78.50;;;;;;10488032;28;20020;-73
2021/10/05 18:22:11;;;;;;;8.27;3.58;;;18.90;78.70;;;;;;10492856;28;20039;-68
2021/10/05 18:27:11;;;;;;;16.00;4.88;;;18.80;78.40;;;;;;10495474;28;20031;-68
2021/10/05 18:32:13;;;;;;;14.68;4.85;;;18.80;78.40;;;;;;10494110;28;20044;-72
2021/10/05 18:37:14;;;;;;;10.38;3.85;;;18.90;78.60;;;;;;10495654;28;20024;-69
2021/10/05 18:42:14;;;;;;;10.63;3.92;;;18.90;78.50;;;;;;10496007;28;20447;-69
2021/10/05 18:47:15;;;;;;;8.40;3.65;;;18.80;78.40;;;;;;10478360;28;20059;-75
2021/10/05 18:52:16;;;;;;;9.30;4.07;;;18.80;78.40;;;;;;10496802;28;20028;-69
2021/10/05 18:57:17;;;;;;;9.35;3.95;;;18.80;78.50;;;;;;10495145;28;20070;-71
2021/10/05 19:02:17;;;;;;;8.65;3.53;;;18.80;78.50;;;;;;10495648;28;20048;-70
2021/10/05 19:07:18;;;;;;;12.75;3.75;;;18.80;78.50;;;;;;10495467;28;20059;-69
2021/10/05 19:12:19;;;;;;;6.47;3.05;;;18.80;78.60;;;;;;10494441;28;20048;-70
2021/10/05 19:17:21;;;;;;;8.35;3.58;;;18.80;78.50;;;;;;10495037;28;20074;-71
2021/10/05 19:22:21;;;;;;;12.15;4.43;;;18.80;78.60;;;;;;10494733;28;20031;-74
2021/10/05 19:27:22;;;;;;;9.50;3.42;;;18.80;78.30;;;;;;10495327;28;20100;-77
2021/10/05 19:32:23;;;;;;;6.72;3.08;;;18.80;78.20;;;;;;10496572;28;20036;-75
2021/10/05 19:37:23;;;;;;;6.13;3.45;;;18.80;78.30;;;;;;10493512;28;20107;-68
2021/10/05 19:42:24;;;;;;;5.90;2.38;;;18.80;78.20;;;;;;10494774;28;20147;-68
2021/10/05 19:47:25;;;;;;;7.95;3.05;;;18.80;78.30;;;;;;10499833;28;20029;-70
2021/10/05 19:52:25;;;;;;;16.08;3.92;;;18.80;78.30;;;;;;10494202;28;20370;-70
2021/10/05 19:57:26;;;;;;;7.97;3.28;;;18.80;77.50;;;;;;10501337;28;20078;-71
2021/10/05 20:02:27;;;;;;;3.65;2.10;;;18.70;77.90;;;;;;10502882;28;20037;-70
2021/10/05 20:07:27;;;;;;;6.40;3.30;;;18.70;78.00;;;;;;10499765;28;20068;-70
2021/10/05 20:12:28;;;;;;;5.05;2.30;;;18.60;78.00;;;;;;10501278;28;20116;-71
2021/10/05 20:17:29;;;;;;;5.32;2.50;;;18.60;78.10;;;;;;10500690;28;20064;-71
2021/10/05 20:22:29;;;;;;;5.68;2.75;;;18.60;78.00;;;;;;10503296;28;20055;-72
2021/10/05 20:27:30;;;;;;;4.30;2.33;;;18.50;78.00;;;;;;10501695;28;20044;-73
2021/10/05 20:32:32;;;;;;;5.30;2.15;;;18.50;77.90;;;;;;10500602;28;20123;-71
2021/10/05 20:37:33;;;;;;;6.47;2.50;;;18.50;77.80;;;;;;10501454;28;20024;-72
2021/10/05 20:42:34;;;;;;;3.75;2.28;;;18.50;77.70;;;;;;10501369;28;20028;-73
2021/10/05 20:47:35;;;;;;;4.72;2.40;;;18.50;77.60;;;;;;10500961;28;20037;-72
2021/10/05 20:52:36;;;;;;;5.13;1.98;;;18.50;77.40;;;;;;10514096;28;20469;-73
2021/10/05 20:57:37;;;;;;;5.05;2.58;;;18.50;77.40;;;;;;10482394;28;20058;-73
2021/10/05 21:02:38;;;;;;;4.38;1.98;;;18.50;77.50;;;;;;10501516;28;20063;-72
2021/10/05 21:07:39;;;;;;;4.93;1.65;;;18.60;77.30;;;;;;10500023;28;20042;-73
2021/10/05 21:12:39;;;;;;;5.90;2.40;;;18.60;77.10;;;;;;10501835;28;20461;-72
2021/10/05 21:17:40;;;;;;;6.68;2.80;;;18.60;77.00;;;;;;10500557;28;20067;-72
2021/10/05 21:22:41;;;;;;;3.45;1.85;;;18.60;77.00;;;;;;10481955;28;20021;-73
2021/10/05 21:27:41;;;;;;;3.45;2.22;;;18.60;76.70;;;;;;10499197;28;20044;-73
2021/10/05 21:32:43;;;;;;;6.10;2.42;;;18.70;76.50;;;;;;10484737;28;20068;-72
2021/10/05 21:37:44;;;;;;;3.55;1.40;;;18.70;76.40;;;;;;10498899;28;20039;-72
2021/10/05 21:42:45;;;;;;;4.70;1.73;;;18.70;76.30;;;;;;10498812;28;20039;-72
2021/10/05 21:47:45;;;;;;;4.47;2.28;;;18.70;76.40;;;;;;10497425;28;20025;-73
2021/10/05 21:52:46;;;;;;;3.47;1.73;;;18.60;76.50;;;;;;10510647;28;20039;-72
2021/10/05 21:57:49;;;;;;;3.72;1.88;;;18.60;76.60;;;;;;10498271;28;20059;-70
2021/10/05 22:02:49;;;;;;;4.45;1.67;;;18.60;76.60;;;;;;10498042;28;20816;-67
2021/10/05 22:07:51;;;;;;;4.90;2.05;;;18.60;76.70;;;;;;10495799;28;20128;-71
2021/10/05 22:12:53;;;;;;;3.47;1.67;;;18.60;76.50;;;;;;10496782;28;20032;-72
2021/10/05 22:17:53;;;;;;;6.10;1.95;;;18.70;76.20;;;;;;10497760;28;20111;-73
2021/10/05 22:22:54;;;;;;;4.55;1.77;;;18.70;76.10;;;;;;10496423;28;20032;-73
2021/10/05 22:27:55;;;;;;;3.58;1.95;;;18.60;76.00;;;;;;10496153;28;20040;-76
2021/10/05 22:32:56;;;;;;;4.95;1.85;;;18.60;76.10;;;;;;10482262;28;20065;-73
2021/10/05 22:37:57;;;;;;;3.40;1.73;;;18.60;76.20;;;;;;10497187;28;20031;-73
2021/10/05 22:42:58;;;;;;;2.58;1.30;;;18.60;76.30;;;;;;10497367;28;20480;-72
2021/10/05 22:47:58;;;;;;;4.25;2.00;;;18.60;76.30;;;;;;10497336;28;20040;-68
2021/10/05 22:52:59;;;;;;;6.80;1.77;;;18.60;76.30;;;;;;10509207;28;20028;-74
2021/10/05 22:58:00;;;;;;;4.85;1.88;;;18.70;75.90;;;;;;10496493;28;20115;-73
2021/10/05 23:03:00;;;;;;;3.38;1.75;;;18.70;75.70;;;;;;10496729;28;20381;-70
2021/10/05 23:08:02;;;;;;;3.17;1.42;;;18.70;75.50;;;;;;10496469;28;20067;-73
2021/10/05 23:13:03;;;;;;;2.67;1.40;;;18.70;75.50;;;;;;10495438;28;20024;-73
2021/10/05 23:18:03;;;;;;;4.22;1.60;;;18.70;75.50;;;;;;10495201;28;20036;-74
2021/10/05 23:23:04;;;;;;;2.92;1.40;;;18.70;75.60;;;;;;10502856;28;20043;-72
2021/10/05 23:28:05;;;;;;;3.30;1.63;;;18.70;75.70;;;;;;10504067;28;20476;-73
2021/10/05 23:33:05;;;;;;;2.97;1.33;;;18.60;75.70;;;;;;10490635;28;20127;-73
2021/10/05 23:38:06;;;;;;;3.75;1.27;;;18.60;75.70;;;;;;10490618;28;20116;-73
2021/10/05 23:43:07;;;;;;;1.63;1.25;;;18.60;75.60;;;;;;10503674;28;20028;-73
2021/10/05 23:48:07;;;;;;;3.42;1.50;;;18.70;75.60;;;;;;10501981;28;20085;-73
2021/10/05 23:53:08;;;;;;;3.47;1.20;;;18.60;75.60;;;;;;10503498;28;20056;-73
2021/10/05 23:58:09;;;;;;;4.70;1.30;;;18.60;75.70;;;;;;10501883;28;20099;-72
